createdAt,value
2023-05-21T00:02:17.677Z,99.90
2023-05-21T00:04:51.483Z,99.90
2023-05-21T00:07:23.971Z,99.90
2023-05-21T00:09:56.797Z,99.90
2023-05-21T00:12:29.332Z,99.90
2023-05-21T00:15:02.178Z,99.90
2023-05-21T00:17:37.130Z,99.90
2023-05-21T00:20:10.301Z,99.90
2023-05-21T00:22:43.839Z,99.90
2023-05-21T00:25:16.648Z,99.90
2023-05-21T00:27:49.473Z,99.90
2023-05-21T00:30:22.604Z,99.90
2023-05-21T00:32:55.162Z,99.90
2023-05-21T00:35:28.089Z,99.90
2023-05-21T00:38:00.722Z,99.90
2023-05-21T00:40:35.437Z,99.90
2023-05-21T00:43:10.248Z,99.90
2023-05-21T00:45:44.765Z,99.90
2023-05-21T00:48:17.323Z,99.90
2023-05-21T00:50:50.788Z,99.90
2023-05-21T00:53:23.416Z,99.90
2023-05-21T00:55:56.380Z,99.90
2023-05-21T00:58:29.927Z,99.90
2023-05-21T01:01:03.795Z,99.90
2023-05-21T01:03:38.770Z,99.90
2023-05-21T01:06:14.015Z,99.90
2023-05-21T01:08:46.821Z,99.90
2023-05-21T01:11:21.636Z,99.90
2023-05-21T01:13:54.554Z,99.90
2023-05-21T01:16:27.440Z,99.90
2023-05-21T01:19:00.101Z,99.90
2023-05-21T01:21:37.476Z,99.90
2023-05-21T01:24:10.030Z,99.90
2023-05-21T01:26:44.332Z,99.90
2023-05-21T01:29:16.952Z,99.90
2023-05-21T01:32:10.526Z,99.90
2023-05-21T01:34:47.640Z,99.90
2023-05-21T01:37:43.449Z,99.90
2023-05-21T01:40:31.271Z,99.90
2023-05-21T01:43:07.195Z,99.90
2023-05-21T01:45:42.136Z,99.90
2023-05-21T01:48:17.905Z,99.90
2023-05-21T01:50:51.347Z,99.90
2023-05-21T01:53:24.636Z,99.90
2023-05-21T01:55:57.265Z,99.90
2023-05-21T01:58:30.101Z,99.90
2023-05-21T02:01:02.968Z,99.90
2023-05-21T02:03:35.868Z,99.90
2023-05-21T02:06:08.434Z,99.90
2023-05-21T02:08:41.310Z,99.90
2023-05-21T02:11:13.973Z,99.90
2023-05-21T02:13:47.191Z,99.90
2023-05-21T02:16:19.922Z,99.90
2023-05-21T02:18:57.378Z,99.90
2023-05-21T02:21:30.038Z,99.90
2023-05-21T02:24:02.888Z,99.90
2023-05-21T02:26:35.704Z,99.90
2023-05-21T02:29:08.901Z,99.90
2023-05-21T02:31:41.397Z,99.90
2023-05-21T02:34:14.296Z,99.90
2023-05-21T02:36:52.357Z,99.90
2023-05-21T02:39:26.298Z,99.90
2023-05-21T02:41:58.845Z,99.90
2023-05-21T02:44:31.682Z,99.90
2023-05-21T02:47:04.402Z,99.90
2023-05-21T02:49:37.229Z,99.90
2023-05-21T02:52:09.854Z,99.90
2023-05-21T02:54:42.634Z,99.90
2023-05-21T02:57:15.254Z,99.90
2023-05-21T02:59:48.059Z,99.90
2023-05-21T03:02:20.748Z,99.90
2023-05-21T03:04:54.257Z,99.90
2023-05-21T03:07:26.866Z,99.90
2023-05-21T03:09:59.650Z,99.90
2023-05-21T03:12:32.166Z,99.90
2023-05-21T03:15:05.251Z,99.90
2023-05-21T03:17:37.865Z,99.90
2023-05-21T03:20:16.697Z,99.90
2023-05-21T03:22:49.976Z,99.90
2023-05-21T03:25:25.390Z,99.90
2023-05-21T03:27:57.974Z,99.90
2023-05-21T03:30:30.897Z,99.90
2023-05-21T03:33:03.723Z,99.90
2023-05-21T03:35:36.843Z,99.90
2023-05-21T03:38:09.606Z,99.90
2023-05-21T03:40:42.506Z,99.90
2023-05-21T03:43:15.045Z,99.90
2023-05-21T03:45:47.993Z,99.90
2023-05-21T03:48:20.574Z,99.90
2023-05-21T03:50:53.406Z,99.90
2023-05-21T03:53:26.452Z,99.90
2023-05-21T03:55:59.218Z,99.90
2023-05-21T03:58:31.847Z,99.90
2023-05-21T04:01:05.514Z,99.90
2023-05-21T04:03:40.621Z,99.90
2023-05-21T04:06:13.752Z,99.90
2023-05-21T04:08:46.225Z,99.90
2023-05-21T04:11:19.062Z,99.90
2023-05-21T04:13:51.726Z,99.90
2023-05-21T04:16:24.747Z,99.90
2023-05-21T04:18:57.456Z,99.90
2023-05-21T04:21:32.017Z,99.90
2023-05-21T04:24:04.588Z,99.90
2023-05-21T04:26:38.233Z,99.90
2023-05-21T04:29:10.714Z,99.90
2023-05-21T04:31:43.813Z,99.90
2023-05-21T04:34:19.985Z,99.90
2023-05-21T04:36:54.019Z,99.90
2023-05-21T04:39:26.620Z,99.90
2023-05-21T04:41:59.450Z,99.90
2023-05-21T04:44:31.951Z,99.90
2023-05-21T04:47:05.048Z,99.90
2023-05-21T04:49:37.780Z,99.90
2023-05-21T04:52:11.201Z,99.90
2023-05-21T04:54:45.943Z,99.90
2023-05-21T04:57:19.251Z,99.90
2023-05-21T04:59:52.766Z,99.90
2023-05-21T05:02:25.593Z,99.90
2023-05-21T05:04:59.939Z,99.90
2023-05-21T05:07:32.746Z,99.90
2023-05-21T05:10:05.725Z,99.90
2023-05-21T05:12:38.529Z,99.90
2023-05-21T05:15:11.342Z,99.90
2023-05-21T05:17:44.893Z,99.90
2023-05-21T05:20:17.591Z,99.90
2023-05-21T05:22:50.387Z,99.90
2023-05-21T05:25:22.890Z,99.90
2023-05-21T05:27:55.735Z,99.90
2023-05-21T05:30:28.267Z,99.90
2023-05-21T05:33:01.577Z,99.90
2023-05-21T05:35:34.506Z,99.90
2023-05-21T05:38:09.057Z,99.90
2023-05-21T05:40:41.689Z,99.90
2023-05-21T05:43:14.500Z,99.90
2023-05-21T05:45:47.083Z,99.90
2023-05-21T05:48:19.888Z,99.90
2023-05-21T05:50:54.808Z,99.90
2023-05-21T05:53:27.761Z,99.90
2023-05-21T05:56:00.302Z,99.90
2023-05-21T05:58:33.172Z,99.90
2023-05-21T06:01:05.778Z,99.90
2023-05-21T06:03:39.073Z,99.90
2023-05-21T06:06:12.091Z,99.90
2023-05-21T06:08:45.199Z,99.90
2023-05-21T06:11:19.205Z,99.90
2023-05-21T06:13:52.244Z,99.90
2023-05-21T06:16:24.768Z,99.90
2023-05-21T06:18:57.942Z,99.90
2023-05-21T06:21:30.933Z,99.90
2023-05-21T06:24:03.941Z,99.90
2023-05-21T06:26:36.521Z,99.90
2023-05-21T06:29:09.395Z,99.90
2023-05-21T06:31:42.012Z,99.90
2023-05-21T06:34:15.108Z,99.90
2023-05-21T06:36:48.485Z,99.90
2023-05-21T06:39:21.289Z,99.90
2023-05-21T06:41:53.797Z,99.90
2023-05-21T06:44:26.591Z,99.90
2023-05-21T06:46:59.108Z,99.80
2023-05-21T06:49:32.665Z,99.00
2023-05-21T06:52:05.531Z,99.10
2023-05-21T06:54:38.417Z,97.50
2023-05-21T06:57:11.149Z,97.60
2023-05-21T06:59:44.094Z,97.60
2023-05-21T07:02:17.051Z,97.00
2023-05-21T07:04:50.132Z,96.90
2023-05-21T07:07:22.655Z,95.70
2023-05-21T07:09:55.567Z,96.00
2023-05-21T07:12:28.133Z,96.00
2023-05-21T07:15:01.113Z,95.00
2023-05-21T07:17:33.926Z,94.40
2023-05-21T07:20:10.278Z,94.10
2023-05-21T07:22:44.449Z,93.80
2023-05-21T07:25:17.524Z,92.90
2023-05-21T07:27:50.128Z,92.00
2023-05-21T07:30:23.002Z,91.90
2023-05-21T07:32:58.270Z,91.50
2023-05-21T07:35:31.166Z,88.00
2023-05-21T07:38:04.000Z,86.60
2023-05-21T07:40:37.177Z,85.10
2023-05-21T07:43:09.694Z,85.00
2023-05-21T07:45:42.581Z,83.40
2023-05-21T07:48:15.153Z,82.50
2023-05-21T07:50:49.730Z,81.30
2023-05-21T07:53:22.659Z,81.70
2023-05-21T07:55:55.575Z,82.40
2023-05-21T07:58:28.129Z,81.20
2023-05-21T08:01:01.988Z,78.70
2023-05-21T08:03:34.724Z,78.40
2023-05-21T08:06:07.710Z,78.80
2023-05-21T08:08:40.208Z,79.10
2023-05-21T08:11:13.040Z,78.00
2023-05-21T08:13:45.593Z,77.20
2023-05-21T08:16:19.006Z,74.90
2023-05-21T08:18:51.981Z,75.60
2023-05-21T08:21:24.803Z,72.90
2023-05-21T08:23:57.405Z,73.30
2023-05-21T08:26:30.221Z,72.40
2023-05-21T08:29:03.023Z,72.80
2023-05-21T08:31:36.066Z,71.90
2023-05-21T08:34:08.771Z,68.80
2023-05-21T08:36:46.256Z,70.90
2023-05-21T08:39:18.831Z,69.90
2023-05-21T08:41:57.658Z,67.50
2023-05-21T08:44:33.399Z,67.30
2023-05-21T08:47:10.093Z,69.50
2023-05-21T08:49:44.996Z,68.80
2023-05-21T08:52:18.264Z,70.30
2023-05-21T08:54:52.480Z,68.50
2023-05-21T08:57:28.256Z,71.10
2023-05-21T09:00:02.316Z,68.50
2023-05-21T09:02:38.632Z,67.10
2023-05-21T09:05:12.341Z,65.40
2023-05-21T09:07:54.702Z,64.60
2023-05-21T09:10:34.156Z,65.90
2023-05-21T09:13:08.107Z,64.80
2023-05-21T09:15:41.962Z,65.10
2023-05-21T09:18:15.230Z,65.00
2023-05-21T09:20:47.832Z,63.70
2023-05-21T09:23:22.090Z,64.70
2023-05-21T09:25:54.834Z,67.30
2023-05-21T09:28:27.636Z,67.70
2023-05-21T09:31:03.765Z,66.50
2023-05-21T09:33:39.958Z,64.70
2023-05-21T09:36:12.600Z,62.80
2023-05-21T09:38:45.774Z,59.60
2023-05-21T09:41:21.951Z,59.90
2023-05-21T09:44:02.315Z,62.30
2023-05-21T09:46:41.842Z,66.00
2023-05-21T09:49:26.421Z,63.40
2023-05-21T09:51:59.523Z,64.30
2023-05-21T09:54:34.573Z,63.10
2023-05-21T09:57:07.135Z,62.20
2023-05-21T09:59:41.549Z,62.30
2023-05-21T10:02:23.661Z,63.50
2023-05-21T10:04:57.824Z,61.60
2023-05-21T10:07:30.593Z,62.60
2023-05-21T10:10:06.730Z,61.80
2023-05-21T10:12:53.712Z,63.90
2023-05-21T10:15:30.451Z,62.30
2023-05-21T10:18:04.809Z,61.60
2023-05-21T10:20:38.683Z,62.40
2023-05-21T10:23:13.024Z,61.80
2023-05-21T10:25:46.321Z,61.90
2023-05-21T10:28:20.303Z,60.70
2023-05-21T10:30:54.290Z,59.10
2023-05-21T10:33:30.030Z,60.10
2023-05-21T10:36:03.346Z,61.20
2023-05-21T10:38:37.442Z,60.00
2023-05-21T10:41:11.592Z,60.70
2023-05-21T10:43:53.514Z,60.60
2023-05-21T10:46:32.173Z,60.70
2023-05-21T10:49:25.485Z,60.80
2023-05-21T10:52:17.060Z,57.80
2023-05-21T10:55:23.551Z,57.60
2023-05-21T10:57:56.628Z,57.30
2023-05-21T11:00:31.619Z,57.00
2023-05-21T11:03:05.962Z,58.50
2023-05-21T11:05:51.237Z,59.00
2023-05-21T11:08:31.986Z,60.10
2023-05-21T11:11:05.551Z,59.00
2023-05-21T11:13:51.575Z,58.20
2023-05-21T11:16:25.977Z,54.10
2023-05-21T11:18:58.994Z,53.90
2023-05-21T11:21:34.748Z,56.80
2023-05-21T11:24:08.832Z,55.00
2023-05-21T11:26:52.228Z,54.70
2023-05-21T11:29:41.934Z,57.40
2023-05-21T11:32:15.715Z,54.00
2023-05-21T11:34:48.850Z,54.00
2023-05-21T11:37:23.442Z,53.60
2023-05-21T11:40:26.126Z,53.50
2023-05-21T11:42:58.947Z,54.00
2023-05-21T11:45:33.393Z,54.40
2023-05-21T11:48:07.049Z,56.00
2023-05-21T11:50:42.364Z,54.00
2023-05-21T11:53:15.532Z,53.90
2023-05-21T11:55:48.455Z,56.30
2023-05-21T11:58:21.591Z,55.50
2023-05-21T12:00:54.386Z,52.90
2023-05-21T12:03:27.486Z,53.70
2023-05-21T12:06:05.950Z,52.80
2023-05-21T12:08:38.537Z,49.40
2023-05-21T12:11:11.414Z,52.10
2023-05-21T12:13:44.150Z,51.40
2023-05-21T12:16:17.133Z,51.70
2023-05-21T12:18:50.801Z,51.40
2023-05-21T12:21:23.826Z,53.40
2023-05-21T12:23:56.803Z,50.80
2023-05-21T12:26:33.162Z,48.80
2023-05-21T12:29:07.452Z,49.10
2023-05-21T12:31:50.511Z,51.10
2023-05-21T12:34:46.308Z,49.10
2023-05-21T12:37:26.807Z,50.50
2023-05-21T12:40:01.352Z,49.40
2023-05-21T12:42:37.453Z,49.10
2023-05-21T12:45:11.230Z,48.50
2023-05-21T12:47:50.150Z,48.00
2023-05-21T12:50:22.960Z,45.80
2023-05-21T12:52:58.041Z,46.60
2023-05-21T12:55:33.266Z,46.00
2023-05-21T12:58:08.806Z,47.20
2023-05-21T13:00:45.539Z,47.60
2023-05-21T13:03:19.438Z,47.60
2023-05-21T13:06:01.514Z,48.00
2023-05-21T13:08:34.776Z,47.20
2023-05-21T13:11:07.329Z,48.10
2023-05-21T13:13:40.203Z,49.70
2023-05-21T13:16:12.822Z,49.10
2023-05-21T13:18:45.692Z,49.80
2023-05-21T13:21:18.237Z,49.70
2023-05-21T13:23:51.033Z,50.20
2023-05-21T13:26:23.648Z,49.20
2023-05-21T13:28:56.819Z,48.50
2023-05-21T13:31:29.494Z,49.70
2023-05-21T13:34:03.694Z,49.00
2023-05-21T13:36:38.386Z,48.50
2023-05-21T13:39:11.673Z,48.20
2023-05-21T13:41:44.330Z,47.60
2023-05-21T13:44:17.129Z,48.00
2023-05-21T13:46:49.891Z,49.10
2023-05-21T13:49:22.764Z,48.20
2023-05-21T13:51:55.370Z,49.40
2023-05-21T13:54:28.628Z,48.40
2023-05-21T13:57:01.308Z,46.60
2023-05-21T13:59:34.166Z,46.40
2023-05-21T14:02:08.882Z,47.00
2023-05-21T14:04:41.967Z,48.00
2023-05-21T14:07:14.754Z,47.60
2023-05-21T14:09:47.828Z,47.40
2023-05-21T14:12:20.745Z,47.40
2023-05-21T14:14:53.624Z,46.90
2023-05-21T14:17:26.173Z,47.60
2023-05-21T14:19:59.199Z,47.80
2023-05-21T14:22:31.775Z,48.30
2023-05-21T14:25:05.008Z,47.60
2023-05-21T14:27:38.221Z,47.80
2023-05-21T14:30:11.560Z,47.50
2023-05-21T14:32:44.269Z,47.80
2023-05-21T14:35:17.197Z,47.00
2023-05-21T14:37:49.756Z,46.10
2023-05-21T14:40:22.809Z,44.60
2023-05-21T14:42:56.203Z,43.30
2023-05-21T14:45:29.001Z,43.10
2023-05-21T14:48:08.681Z,42.90
2023-05-21T14:50:41.599Z,42.60
2023-05-21T14:53:14.118Z,41.00
2023-05-21T14:55:46.996Z,41.20
2023-05-21T14:58:19.503Z,41.20
2023-05-21T15:00:52.405Z,41.10
2023-05-21T15:03:25.206Z,41.80
2023-05-21T15:05:58.704Z,41.30
2023-05-21T15:08:31.411Z,40.90
2023-05-21T15:11:04.379Z,41.00
2023-05-21T15:13:37.116Z,39.80
2023-05-21T15:16:10.429Z,39.50
2023-05-21T15:18:43.035Z,39.20
2023-05-21T15:21:16.076Z,38.50
2023-05-21T15:23:48.608Z,37.20
2023-05-21T15:26:21.718Z,37.60
2023-05-21T15:28:54.323Z,36.60
2023-05-21T15:31:27.161Z,36.10
2023-05-21T15:34:00.356Z,35.10
2023-05-21T15:36:33.362Z,35.30
2023-05-21T15:39:06.352Z,34.90
2023-05-21T15:41:40.572Z,34.30
2023-05-21T15:44:13.089Z,35.40
2023-05-21T15:46:46.004Z,35.30
2023-05-21T15:49:18.628Z,34.50
2023-05-21T15:51:51.695Z,34.30
2023-05-21T15:54:31.056Z,34.90
2023-05-21T15:57:03.982Z,35.30
2023-05-21T15:59:36.534Z,35.70
2023-05-21T16:02:09.866Z,34.90
2023-05-21T16:04:42.426Z,35.20
2023-05-21T16:07:15.361Z,35.50
2023-05-21T16:09:48.016Z,35.70
2023-05-21T16:12:20.994Z,35.60
2023-05-21T16:14:53.573Z,36.30
2023-05-21T16:17:26.427Z,37.00
2023-05-21T16:19:59.020Z,37.10
2023-05-21T16:22:31.818Z,37.40
2023-05-21T16:25:04.758Z,37.80
2023-05-21T16:27:37.630Z,37.60
2023-05-21T16:30:11.944Z,37.70
2023-05-21T16:32:45.189Z,38.70
2023-05-21T16:35:17.756Z,38.90
2023-05-21T16:37:50.772Z,38.90
2023-05-21T16:40:23.444Z,39.10
2023-05-21T16:42:56.341Z,39.10
2023-05-21T16:45:41.833Z,39.00
2023-05-21T16:48:16.399Z,38.60
2023-05-21T16:50:48.965Z,38.80
2023-05-21T16:53:24.601Z,38.80
2023-05-21T16:55:57.138Z,38.30
2023-05-21T16:58:29.917Z,38.70
2023-05-21T17:01:02.763Z,38.50
2023-05-21T17:03:38.916Z,38.30
2023-05-21T17:06:13.941Z,38.50
2023-05-21T17:08:46.853Z,38.60
2023-05-21T17:11:19.408Z,38.30
2023-05-21T17:13:55.570Z,38.30
2023-05-21T17:16:28.244Z,39.10
2023-05-21T17:19:01.289Z,37.80
2023-05-21T17:21:33.962Z,37.90
2023-05-21T17:24:07.176Z,37.20
2023-05-21T17:26:39.719Z,37.30
2023-05-21T17:29:12.530Z,37.30
2023-05-21T17:31:45.166Z,37.70
2023-05-21T17:34:18.122Z,37.40
2023-05-21T17:36:54.253Z,37.70
2023-05-21T17:39:27.104Z,38.30
2023-05-21T17:41:59.633Z,39.10
2023-05-21T17:44:35.192Z,41.00
2023-05-21T17:47:07.978Z,40.60
2023-05-21T17:49:41.401Z,41.40
2023-05-21T17:52:13.962Z,42.00
2023-05-21T17:54:47.023Z,42.60
2023-05-21T17:57:22.630Z,43.20
2023-05-21T17:59:55.667Z,43.80
2023-05-21T18:02:28.253Z,44.60
2023-05-21T18:05:03.168Z,45.30
2023-05-21T18:07:39.730Z,45.90
2023-05-21T18:10:12.636Z,47.00
2023-05-21T18:12:48.109Z,47.30
2023-05-21T18:15:24.212Z,48.20
2023-05-21T18:17:56.962Z,49.00
2023-05-21T18:20:30.246Z,49.70
2023-05-21T18:23:03.372Z,50.40
2023-05-21T18:25:36.166Z,51.00
2023-05-21T18:28:09.579Z,51.30
2023-05-21T18:30:42.900Z,51.90
2023-05-21T18:33:16.804Z,52.80
2023-05-21T18:35:49.640Z,52.80
2023-05-21T18:38:22.384Z,53.50
2023-05-21T18:40:55.216Z,53.50
2023-05-21T18:43:27.814Z,53.80
2023-05-21T18:46:00.842Z,54.40
2023-05-21T18:48:33.445Z,54.90
2023-05-21T18:51:06.251Z,55.40
2023-05-21T18:53:39.283Z,55.80
2023-05-21T18:56:12.151Z,56.30
2023-05-21T18:58:44.728Z,57.00
2023-05-21T19:01:18.382Z,57.70
2023-05-21T19:03:51.038Z,57.90
2023-05-21T19:06:25.735Z,58.30
2023-05-21T19:08:58.317Z,58.90
2023-05-21T19:11:34.452Z,58.90
2023-05-21T19:14:07.314Z,59.50
2023-05-21T19:16:40.609Z,59.70
2023-05-21T19:19:13.541Z,59.70
2023-05-21T19:21:46.679Z,60.00
2023-05-21T19:24:19.799Z,60.80
2023-05-21T19:26:52.962Z,61.00
2023-05-21T19:29:28.162Z,61.20
2023-05-21T19:32:01.962Z,61.60
2023-05-21T19:34:34.670Z,61.90
2023-05-21T19:37:08.464Z,62.20
2023-05-21T19:39:42.860Z,62.50
2023-05-21T19:42:17.422Z,62.70
2023-05-21T19:44:50.255Z,63.30
2023-05-21T19:47:23.233Z,63.40
2023-05-21T19:49:56.608Z,63.50
2023-05-21T19:52:30.307Z,63.50
2023-05-21T19:55:05.977Z,63.90
2023-05-21T19:57:39.838Z,64.30
2023-05-21T20:00:13.961Z,64.40
2023-05-21T20:02:47.131Z,64.80
2023-05-21T20:05:20.340Z,65.10
2023-05-21T20:07:53.558Z,65.10
2023-05-21T20:10:28.270Z,65.50
2023-05-21T20:13:01.665Z,65.80
2023-05-21T20:15:35.793Z,66.50
2023-05-21T20:18:09.053Z,66.80
2023-05-21T20:20:42.170Z,66.80
2023-05-21T20:23:15.461Z,67.20
2023-05-21T20:25:48.131Z,66.90
2023-05-21T20:28:23.046Z,67.10
2023-05-21T20:31:00.066Z,67.20
2023-05-21T20:33:34.885Z,67.20
2023-05-21T20:36:07.965Z,67.60
2023-05-21T20:38:42.248Z,67.70
2023-05-21T20:41:15.059Z,68.70
2023-05-21T20:43:48.028Z,68.10
2023-05-21T20:46:21.177Z,68.30
2023-05-21T20:48:54.386Z,68.30
2023-05-21T20:51:27.613Z,68.40
2023-05-21T20:54:00.828Z,68.90
2023-05-21T20:56:42.072Z,69.30
2023-05-21T20:59:15.562Z,69.50
2023-05-21T21:01:48.484Z,70.00
2023-05-21T21:04:22.313Z,71.00
2023-05-21T21:06:55.435Z,71.00
2023-05-21T21:09:28.370Z,71.10
2023-05-21T21:12:11.290Z,71.00
2023-05-21T21:14:47.959Z,71.40
2023-05-21T21:17:21.007Z,72.00
2023-05-21T21:19:54.101Z,72.50
2023-05-21T21:22:28.237Z,72.60
2023-05-21T21:25:01.205Z,73.30
2023-05-21T21:27:33.920Z,74.00
2023-05-21T21:30:08.032Z,74.80
2023-05-21T21:32:41.420Z,76.20
2023-05-21T21:35:14.508Z,76.90
2023-05-21T21:37:47.193Z,77.60
2023-05-21T21:40:20.149Z,78.40
2023-05-21T21:42:52.972Z,78.90
2023-05-21T21:45:26.075Z,79.80
2023-05-21T21:47:58.969Z,80.80
2023-05-21T21:50:32.135Z,80.90
2023-05-21T21:53:06.125Z,81.60
2023-05-21T21:55:39.447Z,82.30
2023-05-21T21:58:12.430Z,82.10
2023-05-21T22:00:45.459Z,82.30
2023-05-21T22:03:18.605Z,83.10
2023-05-21T22:05:52.132Z,83.70
2023-05-21T22:08:25.792Z,84.30
2023-05-21T22:10:59.175Z,85.00
2023-05-21T22:13:31.896Z,85.20
2023-05-21T22:16:05.685Z,85.30
2023-05-21T22:18:41.453Z,85.20
2023-05-21T22:21:18.533Z,85.20
2023-05-21T22:23:51.411Z,85.80
2023-05-21T22:26:24.251Z,86.30
2023-05-21T22:28:59.181Z,87.40
2023-05-21T22:31:32.171Z,88.80
2023-05-21T22:34:04.931Z,89.20
2023-05-21T22:36:38.874Z,89.30
2023-05-21T22:39:11.457Z,90.00
2023-05-21T22:41:44.856Z,90.00
2023-05-21T22:44:17.521Z,90.50
2023-05-21T22:46:52.124Z,90.70
2023-05-21T22:49:25.007Z,90.80
2023-05-21T22:51:58.214Z,90.80
2023-05-21T22:54:33.797Z,90.90
2023-05-21T22:57:06.636Z,90.90
2023-05-21T22:59:39.175Z,91.30
2023-05-21T23:02:12.892Z,91.50
2023-05-21T23:04:45.954Z,91.70
2023-05-21T23:07:18.802Z,92.20
2023-05-21T23:09:51.882Z,92.50
2023-05-21T23:12:24.821Z,92.70
2023-05-21T23:14:57.343Z,93.10
2023-05-21T23:17:30.184Z,93.40
2023-05-21T23:20:02.883Z,93.50
2023-05-21T23:22:36.290Z,93.70
2023-05-21T23:25:09.443Z,94.40
2023-05-21T23:27:42.429Z,95.10
2023-05-21T23:30:15.189Z,96.00
2023-05-21T23:32:48.192Z,96.70
2023-05-21T23:35:20.857Z,97.10
2023-05-21T23:37:53.694Z,97.60
2023-05-21T23:40:26.256Z,98.30
2023-05-21T23:42:59.210Z,98.20
2023-05-21T23:45:31.964Z,98.30
2023-05-21T23:48:05.136Z,98.30
2023-05-21T23:50:38.116Z,98.70
2023-05-21T23:53:11.284Z,99.00
2023-05-21T23:55:44.470Z,99.20
2023-05-21T23:58:17.367Z,99.40
